Pagrindinis puslapis
METAR-TAF:

METAR-TAF

Oro uostai :

Santorinas, Graikija

platuma: 36-24N, ilguma: 025-29E, Aukštis: 38 m

Dabartinis oras

Ataskaita buvo paskelbta 1 valandą ir 58 minutes, ne 19:50 UTC
Vėjas 5 kt iš Vakarų/Šiaurės Vakarų
Temperatūra 16°C
Drėgmė 82%
Slėgis 1023 hPa
Matomumas 10 km arba daugiau
Išsisklaidę debesys ne aukštis 2500 ft

METAR: LGSR 151950Z 30005KT 9999 SCT025 16/13 Q1023 RMK FEW080 BLU

Laikas: 23:48 (21:48 UTC)

Prognozė

Ataskaita buvo paskelbta 4 valandos ir 48 minutes, ne 17:00 UTC
Prognozė galioja nuo 15 metu 18 UTC su 16 metu 18 UTC
Vėjas 10 kt iš Šiaurės
Matomumas 10 km arba daugiau
Išsisklaidę debesys ne aukštis 2000 ft

TAF: LGSR 151700Z 1518/1618 35010KT 9999 SCT020

Orai ataskaitas ir orų prognozės (METAR, TAF).

turimą stotys yra geltonos ir raudonos taškus žemėlapyje.

Perkelti pele per norėdami pamatyti stoties vardą.

Tada spustelėkite, norėdami matyti oro stebėjimo ir prognozės.

Norėdami pakeisti žemėlapį: spustelėkite ant žalios mygtukų su juodo kryžiaus žemyn,; žalią mygtuką su brūkšneliu, jei norite nutolinti; arba žalių rodyklių gretimoms žemėlapius.


METAR-TAF: